sensor_id;sensor_type;location;lat;lon;timestamp;P1;durP1;ratioP1;P2;durP2;ratioP2
20557;SDS011;10437;48.156;11.530;2023-01-01T00:00:09;71.70;;;36.08;;
20557;SDS011;10437;48.156;11.530;2023-01-01T00:02:37;81.22;;;38.35;;
20557;SDS011;10437;48.156;11.530;2023-01-01T00:05:04;70.28;;;35.80;;
20557;SDS011;10437;48.156;11.530;2023-01-01T00:07:32;74.80;;;33.60;;
20557;SDS011;10437;48.156;11.530;2023-01-01T00:09:59;63.92;;;30.75;;
20557;SDS011;10437;48.156;11.530;2023-01-01T00:12:45;62.53;;;29.75;;
20557;SDS011;10437;48.156;11.530;2023-01-01T00:15:12;54.35;;;28.40;;
20557;SDS011;10437;48.156;11.530;2023-01-01T00:17:39;64.13;;;33.28;;
20557;SDS011;10437;48.156;11.530;2023-01-01T00:20:06;65.13;;;31.60;;
20557;SDS011;10437;48.156;11.530;2023-01-01T00:22:33;47.17;;;23.63;;
20557;SDS011;10437;48.156;11.530;2023-01-01T00:25:00;43.22;;;21.30;;
20557;SDS011;10437;48.156;11.530;2023-01-01T00:27:28;29.45;;;15.68;;
20557;SDS011;10437;48.156;11.530;2023-01-01T00:29:56;26.10;;;14.32;;
20557;SDS011;10437;48.156;11.530;2023-01-01T00:32:23;22.83;;;12.23;;
20557;SDS011;10437;48.156;11.530;2023-01-01T00:34:50;21.73;;;12.02;;
20557;SDS011;10437;48.156;11.530;2023-01-01T00:37:17;25.65;;;11.98;;
20557;SDS011;10437;48.156;11.530;2023-01-01T00:39:44;27.15;;;12.00;;
20557;SDS011;10437;48.156;11.530;2023-01-01T00:42:11;21.98;;;11.43;;
20557;SDS011;10437;48.156;11.530;2023-01-01T00:44:38;22.45;;;10.00;;
20557;SDS011;10437;48.156;11.530;2023-01-01T00:47:07;16.95;;;7.88;;
20557;SDS011;10437;48.156;11.530;2023-01-01T00:49:34;16.52;;;7.88;;
20557;SDS011;10437;48.156;11.530;2023-01-01T00:52:01;22.55;;;9.07;;
20557;SDS011;10437;48.156;11.530;2023-01-01T00:54:28;13.10;;;7.57;;
20557;SDS011;10437;48.156;11.530;2023-01-01T00:56:55;17.17;;;8.75;;
20557;SDS011;10437;48.156;11.530;2023-01-01T00:59:22;18.13;;;9.35;;
20557;SDS011;10437;48.156;11.530;2023-01-01T01:01:49;16.63;;;8.68;;
20557;SDS011;10437;48.156;11.530;2023-01-01T01:04:18;17.40;;;8.00;;
20557;SDS011;10437;48.156;11.530;2023-01-01T01:06:45;21.10;;;8.32;;
20557;SDS011;10437;48.156;11.530;2023-01-01T01:09:12;14.38;;;8.15;;
20557;SDS011;10437;48.156;11.530;2023-01-01T01:11:39;13.80;;;8.02;;
20557;SDS011;10437;48.156;11.530;2023-01-01T01:14:06;14.73;;;7.93;;
20557;SDS011;10437;48.156;11.530;2023-01-01T01:16:33;17.63;;;8.90;;
20557;SDS011;10437;48.156;11.530;2023-01-01T01:19:02;16.67;;;8.02;;
20557;SDS011;10437;48.156;11.530;2023-01-01T01:21:32;15.25;;;8.32;;
20557;SDS011;10437;48.156;11.530;2023-01-01T01:24:00;16.45;;;8.27;;
20557;SDS011;10437;48.156;11.530;2023-01-01T01:26:28;13.35;;;7.82;;
20557;SDS011;10437;48.156;11.530;2023-01-01T01:28:57;14.63;;;7.50;;
20557;SDS011;10437;48.156;11.530;2023-01-01T01:31:25;15.82;;;8.15;;
20557;SDS011;10437;48.156;11.530;2023-01-01T01:33:53;18.98;;;7.97;;
20557;SDS011;10437;48.156;11.530;2023-01-01T01:36:21;15.35;;;7.90;;
20557;SDS011;10437;48.156;11.530;2023-01-01T01:38:50;13.85;;;7.32;;
20557;SDS011;10437;48.156;11.530;2023-01-01T01:41:17;16.08;;;7.95;;
20557;SDS011;10437;48.156;11.530;2023-01-01T01:43:48;17.58;;;7.47;;
20557;SDS011;10437;48.156;11.530;2023-01-01T01:46:18;20.00;;;8.40;;
20557;SDS011;10437;48.156;11.530;2023-01-01T01:48:48;18.23;;;7.88;;
20557;SDS011;10437;48.156;11.530;2023-01-01T01:51:18;14.50;;;7.70;;
20557;SDS011;10437;48.156;11.530;2023-01-01T01:53:50;14.13;;;6.68;;
20557;SDS011;10437;48.156;11.530;2023-01-01T01:56:20;15.65;;;6.57;;
20557;SDS011;10437;48.156;11.530;2023-01-01T01:58:51;15.23;;;6.28;;
20557;SDS011;10437;48.156;11.530;2023-01-01T02:01:19;14.07;;;6.05;;
20557;SDS011;10437;48.156;11.530;2023-01-01T02:03:47;12.07;;;5.35;;
20557;SDS011;10437;48.156;11.530;2023-01-01T02:06:17;12.20;;;5.32;;
20557;SDS011;10437;48.156;11.530;2023-01-01T02:08:45;11.00;;;5.60;;
20557;SDS011;10437;48.156;11.530;2023-01-01T02:11:13;12.38;;;5.78;;
20557;SDS011;10437;48.156;11.530;2023-01-01T02:13:40;9.35;;;5.18;;
20557;SDS011;10437;48.156;11.530;2023-01-01T02:16:10;9.90;;;5.00;;
20557;SDS011;10437;48.156;11.530;2023-01-01T02:18:41;13.25;;;5.35;;
20557;SDS011;10437;48.156;11.530;2023-01-01T02:21:15;8.73;;;4.68;;
20557;SDS011;10437;48.156;11.530;2023-01-01T02:23:59;10.38;;;5.15;;
20557;SDS011;10437;48.156;11.530;2023-01-01T02:26:36;8.88;;;5.18;;
20557;SDS011;10437;48.156;11.530;2023-01-01T02:29:24;10.75;;;5.25;;
20557;SDS011;10437;48.156;11.530;2023-01-01T02:31:59;12.68;;;5.50;;
20557;SDS011;10437;48.156;11.530;2023-01-01T02:34:30;8.00;;;4.80;;
20557;SDS011;10437;48.156;11.530;2023-01-01T02:37:00;9.65;;;5.55;;
20557;SDS011;10437;48.156;11.530;2023-01-01T02:39:32;8.68;;;5.35;;
20557;SDS011;10437;48.156;11.530;2023-01-01T02:42:04;10.15;;;5.15;;
20557;SDS011;10437;48.156;11.530;2023-01-01T02:44:35;9.27;;;5.28;;
20557;SDS011;10437;48.156;11.530;2023-01-01T02:47:06;10.50;;;5.32;;
20557;SDS011;10437;48.156;11.530;2023-01-01T02:49:35;7.90;;;4.97;;
20557;SDS011;10437;48.156;11.530;2023-01-01T02:52:07;13.38;;;5.90;;
20557;SDS011;10437;48.156;11.530;2023-01-01T02:54:36;10.93;;;5.68;;
20557;SDS011;10437;48.156;11.530;2023-01-01T02:57:14;11.38;;;5.20;;
20557;SDS011;10437;48.156;11.530;2023-01-01T02:59:53;12.13;;;5.72;;
20557;SDS011;10437;48.156;11.530;2023-01-01T03:02:44;9.30;;;5.68;;
20557;SDS011;10437;48.156;11.530;2023-01-01T03:05:17;12.55;;;5.63;;
20557;SDS011;10437;48.156;11.530;2023-01-01T03:07:51;13.02;;;5.82;;
20557;SDS011;10437;48.156;11.530;2023-01-01T03:10:29;10.70;;;5.82;;
20557;SDS011;10437;48.156;11.530;2023-01-01T03:13:02;8.75;;;5.50;;
20557;SDS011;10437;48.156;11.530;2023-01-01T03:15:39;10.60;;;5.70;;
20557;SDS011;10437;48.156;11.530;2023-01-01T03:18:07;14.75;;;6.32;;
20557;SDS011;10437;48.156;11.530;2023-01-01T03:20:35;12.45;;;6.20;;
20557;SDS011;10437;48.156;11.530;2023-01-01T03:23:06;10.38;;;5.97;;
20557;SDS011;10437;48.156;11.530;2023-01-01T03:25:38;12.70;;;5.93;;
20557;SDS011;10437;48.156;11.530;2023-01-01T03:28:09;14.82;;;5.75;;
20557;SDS011;10437;48.156;11.530;2023-01-01T03:30:41;10.95;;;5.70;;
20557;SDS011;10437;48.156;11.530;2023-01-01T03:33:12;12.63;;;5.35;;
20557;SDS011;10437;48.156;11.530;2023-01-01T03:35:42;10.02;;;5.70;;
20557;SDS011;10437;48.156;11.530;2023-01-01T03:38:16;9.75;;;5.90;;
20557;SDS011;10437;48.156;11.530;2023-01-01T03:40:46;11.20;;;5.75;;
20557;SDS011;10437;48.156;11.530;2023-01-01T03:43:17;9.93;;;5.72;;
20557;SDS011;10437;48.156;11.530;2023-01-01T03:45:50;10.60;;;5.72;;
20557;SDS011;10437;48.156;11.530;2023-01-01T03:48:19;11.57;;;5.95;;
20557;SDS011;10437;48.156;11.530;2023-01-01T03:50:49;11.25;;;5.93;;
20557;SDS011;10437;48.156;11.530;2023-01-01T03:53:26;16.10;;;7.03;;
20557;SDS011;10437;48.156;11.530;2023-01-01T03:56:01;13.60;;;6.90;;
20557;SDS011;10437;48.156;11.530;2023-01-01T03:58:38;13.13;;;7.05;;
20557;SDS011;10437;48.156;11.530;2023-01-01T04:01:14;12.77;;;6.55;;
20557;SDS011;10437;48.156;11.530;2023-01-01T04:03:45;14.73;;;6.53;;
20557;SDS011;10437;48.156;11.530;2023-01-01T04:06:12;13.00;;;7.05;;
20557;SDS011;10437;48.156;11.530;2023-01-01T04:08:40;21.30;;;8.93;;
20557;SDS011;10437;48.156;11.530;2023-01-01T04:11:09;13.50;;;6.85;;
20557;SDS011;10437;48.156;11.530;2023-01-01T04:13:58;15.50;;;7.57;;
20557;SDS011;10437;48.156;11.530;2023-01-01T04:16:27;14.68;;;7.20;;
20557;SDS011;10437;48.156;11.530;2023-01-01T04:18:54;15.77;;;7.32;;
20557;SDS011;10437;48.156;11.530;2023-01-01T04:21:21;12.57;;;6.90;;
20557;SDS011;10437;48.156;11.530;2023-01-01T04:23:48;13.27;;;7.07;;
20557;SDS011;10437;48.156;11.530;2023-01-01T04:26:15;14.35;;;7.03;;
20557;SDS011;10437;48.156;11.530;2023-01-01T04:28:42;13.98;;;7.03;;
20557;SDS011;10437;48.156;11.530;2023-01-01T04:31:10;11.50;;;6.70;;
20557;SDS011;10437;48.156;11.530;2023-01-01T04:33:38;16.02;;;6.53;;
20557;SDS011;10437;48.156;11.530;2023-01-01T04:36:05;13.15;;;6.45;;
20557;SDS011;10437;48.156;11.530;2023-01-01T04:38:34;13.52;;;6.22;;
20557;SDS011;10437;48.156;11.530;2023-01-01T04:41:02;17.67;;;7.13;;
20557;SDS011;10437;48.156;11.530;2023-01-01T04:43:30;11.05;;;6.72;;
20557;SDS011;10437;48.156;11.530;2023-01-01T04:45:57;13.40;;;6.90;;
20557;SDS011;10437;48.156;11.530;2023-01-01T04:48:24;13.85;;;6.93;;
20557;SDS011;10437;48.156;11.530;2023-01-01T04:50:56;11.95;;;6.70;;
20557;SDS011;10437;48.156;11.530;2023-01-01T04:53:24;15.55;;;7.45;;
20557;SDS011;10437;48.156;11.530;2023-01-01T04:55:53;15.82;;;7.82;;
20557;SDS011;10437;48.156;11.530;2023-01-01T04:58:20;13.10;;;6.95;;
20557;SDS011;10437;48.156;11.530;2023-01-01T05:00:48;15.38;;;7.72;;
20557;SDS011;10437;48.156;11.530;2023-01-01T05:03:15;16.95;;;7.53;;
20557;SDS011;10437;48.156;11.530;2023-01-01T05:05:42;17.92;;;8.18;;
20557;SDS011;10437;48.156;11.530;2023-01-01T05:08:11;14.60;;;7.50;;
20557;SDS011;10437;48.156;11.530;2023-01-01T05:10:37;14.68;;;7.93;;
20557;SDS011;10437;48.156;11.530;2023-01-01T05:13:05;14.18;;;8.30;;
20557;SDS011;10437;48.156;11.530;2023-01-01T05:15:34;14.43;;;7.85;;
20557;SDS011;10437;48.156;11.530;2023-01-01T05:18:02;17.70;;;8.13;;
20557;SDS011;10437;48.156;11.530;2023-01-01T05:20:29;13.25;;;7.40;;
20557;SDS011;10437;48.156;11.530;2023-01-01T05:22:56;16.30;;;8.13;;
20557;SDS011;10437;48.156;11.530;2023-01-01T05:25:24;13.65;;;7.25;;
20557;SDS011;10437;48.156;11.530;2023-01-01T05:27:52;15.05;;;7.90;;
20557;SDS011;10437;48.156;11.530;2023-01-01T05:30:19;15.32;;;7.53;;
20557;SDS011;10437;48.156;11.530;2023-01-01T05:32:47;16.00;;;7.22;;
20557;SDS011;10437;48.156;11.530;2023-01-01T05:35:14;13.95;;;6.75;;
20557;SDS011;10437;48.156;11.530;2023-01-01T05:37:41;10.82;;;6.18;;
20557;SDS011;10437;48.156;11.530;2023-01-01T05:40:08;14.13;;;6.88;;
20557;SDS011;10437;48.156;11.530;2023-01-01T05:42:37;12.18;;;6.40;;
20557;SDS011;10437;48.156;11.530;2023-01-01T05:45:04;10.68;;;5.15;;
20557;SDS011;10437;48.156;11.530;2023-01-01T05:47:31;10.38;;;5.65;;
20557;SDS011;10437;48.156;11.530;2023-01-01T05:49:58;11.57;;;5.30;;
20557;SDS011;10437;48.156;11.530;2023-01-01T05:52:26;12.35;;;5.22;;
20557;SDS011;10437;48.156;11.530;2023-01-01T05:54:53;7.82;;;4.28;;
20557;SDS011;10437;48.156;11.530;2023-01-01T05:57:20;8.02;;;4.32;;
20557;SDS011;10437;48.156;11.530;2023-01-01T05:59:48;7.93;;;4.50;;
20557;SDS011;10437;48.156;11.530;2023-01-01T06:02:15;9.82;;;4.80;;
20557;SDS011;10437;48.156;11.530;2023-01-01T06:04:42;11.02;;;4.70;;
20557;SDS011;10437;48.156;11.530;2023-01-01T06:07:09;8.63;;;4.40;;
20557;SDS011;10437;48.156;11.530;2023-01-01T06:09:36;8.70;;;4.22;;
20557;SDS011;10437;48.156;11.530;2023-01-01T06:12:04;8.95;;;3.88;;
20557;SDS011;10437;48.156;11.530;2023-01-01T06:14:31;9.52;;;3.90;;
20557;SDS011;10437;48.156;11.530;2023-01-01T06:17:00;6.55;;;3.78;;
20557;SDS011;10437;48.156;11.530;2023-01-01T06:19:26;6.53;;;3.55;;
20557;SDS011;10437;48.156;11.530;2023-01-01T06:21:54;6.22;;;3.22;;
20557;SDS011;10437;48.156;11.530;2023-01-01T06:24:21;5.40;;;3.17;;
20557;SDS011;10437;48.156;11.530;2023-01-01T06:26:48;5.22;;;2.90;;
20557;SDS011;10437;48.156;11.530;2023-01-01T06:29:15;7.40;;;2.67;;
20557;SDS011;10437;48.156;11.530;2023-01-01T06:31:42;5.07;;;2.88;;
20557;SDS011;10437;48.156;11.530;2023-01-01T06:34:10;6.47;;;2.92;;
20557;SDS011;10437;48.156;11.530;2023-01-01T06:36:37;5.40;;;3.20;;
20557;SDS011;10437;48.156;11.530;2023-01-01T06:39:05;6.35;;;2.90;;
20557;SDS011;10437;48.156;11.530;2023-01-01T06:41:32;5.25;;;2.53;;
20557;SDS011;10437;48.156;11.530;2023-01-01T06:43:59;5.38;;;2.90;;
20557;SDS011;10437;48.156;11.530;2023-01-01T06:46:27;5.72;;;2.80;;
20557;SDS011;10437;48.156;11.530;2023-01-01T06:48:56;8.85;;;3.08;;
20557;SDS011;10437;48.156;11.530;2023-01-01T06:51:25;5.22;;;2.72;;
20557;SDS011;10437;48.156;11.530;2023-01-01T06:53:53;7.82;;;2.70;;
20557;SDS011;10437;48.156;11.530;2023-01-01T06:56:23;7.70;;;2.85;;
20557;SDS011;10437;48.156;11.530;2023-01-01T06:58:50;5.63;;;2.80;;
20557;SDS011;10437;48.156;11.530;2023-01-01T07:01:18;4.18;;;2.15;;
20557;SDS011;10437;48.156;11.530;2023-01-01T07:03:48;4.72;;;2.17;;
20557;SDS011;10437;48.156;11.530;2023-01-01T07:06:16;4.53;;;2.40;;
20557;SDS011;10437;48.156;11.530;2023-01-01T07:08:45;4.80;;;2.38;;
20557;SDS011;10437;48.156;11.530;2023-01-01T07:11:11;8.75;;;2.45;;
20557;SDS011;10437;48.156;11.530;2023-01-01T07:13:38;6.03;;;2.50;;
20557;SDS011;10437;48.156;11.530;2023-01-01T07:16:06;5.65;;;2.40;;
20557;SDS011;10437;48.156;11.530;2023-01-01T07:18:33;4.78;;;2.45;;
20557;SDS011;10437;48.156;11.530;2023-01-01T07:21:01;4.72;;;2.35;;
20557;SDS011;10437;48.156;11.530;2023-01-01T07:23:29;4.68;;;2.47;;
20557;SDS011;10437;48.156;11.530;2023-01-01T07:25:58;3.88;;;2.10;;
20557;SDS011;10437;48.156;11.530;2023-01-01T07:28:25;6.43;;;2.60;;
20557;SDS011;10437;48.156;11.530;2023-01-01T07:30:52;3.35;;;2.20;;
20557;SDS011;10437;48.156;11.530;2023-01-01T07:33:20;4.47;;;2.50;;
20557;SDS011;10437;48.156;11.530;2023-01-01T07:35:48;5.53;;;2.60;;
20557;SDS011;10437;48.156;11.530;2023-01-01T07:38:15;3.03;;;2.00;;
20557;SDS011;10437;48.156;11.530;2023-01-01T07:40:42;3.90;;;2.35;;
20557;SDS011;10437;48.156;11.530;2023-01-01T07:43:11;6.35;;;2.50;;
20557;SDS011;10437;48.156;11.530;2023-01-01T07:45:38;4.43;;;2.20;;
20557;SDS011;10437;48.156;11.530;2023-01-01T07:48:06;4.57;;;2.20;;
20557;SDS011;10437;48.156;11.530;2023-01-01T07:50:36;6.35;;;2.40;;
20557;SDS011;10437;48.156;11.530;2023-01-01T07:53:03;4.45;;;2.20;;
20557;SDS011;10437;48.156;11.530;2023-01-01T07:55:30;3.60;;;1.80;;
20557;SDS011;10437;48.156;11.530;2023-01-01T07:57:59;3.33;;;1.70;;
20557;SDS011;10437;48.156;11.530;2023-01-01T08:00:27;5.45;;;2.20;;
20557;SDS011;10437;48.156;11.530;2023-01-01T08:02:55;2.63;;;1.85;;
20557;SDS011;10437;48.156;11.530;2023-01-01T08:05:22;4.30;;;1.90;;
20557;SDS011;10437;48.156;11.530;2023-01-01T08:07:50;3.60;;;2.00;;
20557;SDS011;10437;48.156;11.530;2023-01-01T08:10:17;3.60;;;2.08;;
20557;SDS011;10437;48.156;11.530;2023-01-01T08:12:45;2.90;;;1.98;;
20557;SDS011;10437;48.156;11.530;2023-01-01T08:15:12;3.33;;;1.73;;
20557;SDS011;10437;48.156;11.530;2023-01-01T08:17:40;3.80;;;1.80;;
20557;SDS011;10437;48.156;11.530;2023-01-01T08:20:08;4.47;;;1.83;;
20557;SDS011;10437;48.156;11.530;2023-01-01T08:22:35;2.63;;;1.63;;
20557;SDS011;10437;48.156;11.530;2023-01-01T08:25:02;2.40;;;1.45;;
20557;SDS011;10437;48.156;11.530;2023-01-01T08:27:29;3.92;;;1.67;;
20557;SDS011;10437;48.156;11.530;2023-01-01T08:29:57;3.65;;;1.73;;
20557;SDS011;10437;48.156;11.530;2023-01-01T08:32:24;3.70;;;2.00;;
20557;SDS011;10437;48.156;11.530;2023-01-01T08:34:52;2.78;;;1.77;;
20557;SDS011;10437;48.156;11.530;2023-01-01T08:37:19;3.88;;;2.40;;
20557;SDS011;10437;48.156;11.530;2023-01-01T08:39:47;3.65;;;2.17;;
20557;SDS011;10437;48.156;11.530;2023-01-01T08:42:15;3.17;;;1.85;;
20557;SDS011;10437;48.156;11.530;2023-01-01T08:44:42;3.63;;;1.85;;
20557;SDS011;10437;48.156;11.530;2023-01-01T08:47:14;5.85;;;2.00;;
20557;SDS011;10437;48.156;11.530;2023-01-01T08:49:43;3.83;;;2.00;;
20557;SDS011;10437;48.156;11.530;2023-01-01T08:52:12;3.72;;;1.85;;
20557;SDS011;10437;48.156;11.530;2023-01-01T08:54:39;5.57;;;2.00;;
20557;SDS011;10437;48.156;11.530;2023-01-01T08:57:07;3.47;;;2.20;;
20557;SDS011;10437;48.156;11.530;2023-01-01T08:59:34;3.88;;;2.03;;
20557;SDS011;10437;48.156;11.530;2023-01-01T09:02:01;3.50;;;2.10;;
20557;SDS011;10437;48.156;11.530;2023-01-01T09:04:28;5.45;;;2.30;;
20557;SDS011;10437;48.156;11.530;2023-01-01T09:06:55;5.45;;;2.50;;
20557;SDS011;10437;48.156;11.530;2023-01-01T09:09:24;5.82;;;2.35;;
20557;SDS011;10437;48.156;11.530;2023-01-01T09:11:51;4.32;;;2.70;;
20557;SDS011;10437;48.156;11.530;2023-01-01T09:14:19;4.18;;;2.60;;
20557;SDS011;10437;48.156;11.530;2023-01-01T09:16:47;3.75;;;2.45;;
20557;SDS011;10437;48.156;11.530;2023-01-01T09:19:14;8.23;;;2.80;;
20557;SDS011;10437;48.156;11.530;2023-01-01T09:21:41;4.65;;;2.60;;
20557;SDS011;10437;48.156;11.530;2023-01-01T09:24:09;4.20;;;2.47;;
20557;SDS011;10437;48.156;11.530;2023-01-01T09:26:37;6.43;;;2.63;;
20557;SDS011;10437;48.156;11.530;2023-01-01T09:29:04;3.78;;;2.58;;
20557;SDS011;10437;48.156;11.530;2023-01-01T09:31:31;6.72;;;3.05;;
20557;SDS011;10437;48.156;11.530;2023-01-01T09:33:59;5.57;;;2.70;;
20557;SDS011;10437;48.156;11.530;2023-01-01T09:36:30;5.95;;;2.85;;
20557;SDS011;10437;48.156;11.530;2023-01-01T09:38:58;4.28;;;2.70;;
20557;SDS011;10437;48.156;11.530;2023-01-01T09:41:29;3.53;;;2.25;;
20557;SDS011;10437;48.156;11.530;2023-01-01T09:44:08;3.75;;;2.10;;
20557;SDS011;10437;48.156;11.530;2023-01-01T09:46:46;4.00;;;2.00;;
20557;SDS011;10437;48.156;11.530;2023-01-01T09:49:14;3.50;;;1.95;;
20557;SDS011;10437;48.156;11.530;2023-01-01T09:51:43;4.03;;;2.00;;
20557;SDS011;10437;48.156;11.530;2023-01-01T09:54:18;3.97;;;2.40;;
20557;SDS011;10437;48.156;11.530;2023-01-01T09:56:51;3.53;;;1.90;;
20557;SDS011;10437;48.156;11.530;2023-01-01T09:59:22;3.35;;;1.73;;
20557;SDS011;10437;48.156;11.530;2023-01-01T10:01:53;4.13;;;1.70;;
20557;SDS011;10437;48.156;11.530;2023-01-01T10:04:31;2.80;;;2.00;;
20557;SDS011;10437;48.156;11.530;2023-01-01T10:07:08;2.30;;;1.40;;
20557;SDS011;10437;48.156;11.530;2023-01-01T10:09:37;3.38;;;1.63;;
20557;SDS011;10437;48.156;11.530;2023-01-01T10:12:15;3.35;;;1.30;;
20557;SDS011;10437;48.156;11.530;2023-01-01T10:14:49;2.60;;;1.67;;
20557;SDS011;10437;48.156;11.530;2023-01-01T10:17:24;2.58;;;1.65;;
20557;SDS011;10437;48.156;11.530;2023-01-01T10:19:55;4.85;;;1.50;;
20557;SDS011;10437;48.156;11.530;2023-01-01T10:22:26;4.00;;;1.73;;
20557;SDS011;10437;48.156;11.530;2023-01-01T10:24:55;2.03;;;1.25;;
20557;SDS011;10437;48.156;11.530;2023-01-01T10:27:28;2.47;;;1.45;;
20557;SDS011;10437;48.156;11.530;2023-01-01T10:30:01;4.25;;;1.17;;
20557;SDS011;10437;48.156;11.530;2023-01-01T10:32:32;4.38;;;1.30;;
20557;SDS011;10437;48.156;11.530;2023-01-01T10:35:00;3.10;;;1.65;;
20557;SDS011;10437;48.156;11.530;2023-01-01T10:37:35;1.77;;;1.23;;
20557;SDS011;10437;48.156;11.530;2023-01-01T10:40:05;2.30;;;1.58;;
20557;SDS011;10437;48.156;11.530;2023-01-01T10:42:39;3.10;;;1.65;;
20557;SDS011;10437;48.156;11.530;2023-01-01T10:45:10;3.58;;;2.05;;
20557;SDS011;10437;48.156;11.530;2023-01-01T10:47:38;2.55;;;1.67;;
20557;SDS011;10437;48.156;11.530;2023-01-01T10:50:05;3.38;;;1.73;;
20557;SDS011;10437;48.156;11.530;2023-01-01T10:52:34;3.20;;;1.67;;
20557;SDS011;10437;48.156;11.530;2023-01-01T10:55:02;4.50;;;1.73;;
20557;SDS011;10437;48.156;11.530;2023-01-01T10:57:31;2.22;;;1.55;;
20557;SDS011;10437;48.156;11.530;2023-01-01T11:00:11;3.72;;;1.90;;
20557;SDS011;10437;48.156;11.530;2023-01-01T11:02:47;3.28;;;1.92;;
20557;SDS011;10437;48.156;11.530;2023-01-01T11:05:30;3.08;;;1.52;;
20557;SDS011;10437;48.156;11.530;2023-01-01T11:07:57;3.20;;;1.63;;
20557;SDS011;10437;48.156;11.530;2023-01-01T11:10:24;2.17;;;1.50;;
20557;SDS011;10437;48.156;11.530;2023-01-01T11:12:53;2.40;;;1.65;;
20557;SDS011;10437;48.156;11.530;2023-01-01T11:15:23;2.53;;;1.70;;
20557;SDS011;10437;48.156;11.530;2023-01-01T11:18:03;2.00;;;1.23;;
20557;SDS011;10437;48.156;11.530;2023-01-01T11:20:31;3.45;;;1.70;;
20557;SDS011;10437;48.156;11.530;2023-01-01T11:22:59;2.47;;;1.50;;
20557;SDS011;10437;48.156;11.530;2023-01-01T11:25:55;3.67;;;2.00;;
20557;SDS011;10437;48.156;11.530;2023-01-01T11:28:27;3.70;;;1.40;;
20557;SDS011;10437;48.156;11.530;2023-01-01T11:31:01;6.30;;;3.08;;
20557;SDS011;10437;48.156;11.530;2023-01-01T11:33:31;8.40;;;4.05;;
20557;SDS011;10437;48.156;11.530;2023-01-01T11:36:00;2.67;;;1.55;;
20557;SDS011;10437;48.156;11.530;2023-01-01T11:38:27;3.13;;;1.25;;
20557;SDS011;10437;48.156;11.530;2023-01-01T11:40:55;2.20;;;0.95;;
20557;SDS011;10437;48.156;11.530;2023-01-01T11:43:35;2.25;;;1.10;;
20557;SDS011;10437;48.156;11.530;2023-01-01T11:46:09;2.08;;;1.30;;
20557;SDS011;10437;48.156;11.530;2023-01-01T11:48:40;2.25;;;1.10;;
20557;SDS011;10437;48.156;11.530;2023-01-01T11:51:07;1.83;;;1.17;;
20557;SDS011;10437;48.156;11.530;2023-01-01T11:53:37;2.25;;;1.30;;
20557;SDS011;10437;48.156;11.530;2023-01-01T11:56:07;2.97;;;1.13;;
20557;SDS011;10437;48.156;11.530;2023-01-01T11:58:39;2.75;;;1.20;;
20557;SDS011;10437;48.156;11.530;2023-01-01T12:01:16;2.30;;;1.23;;
20557;SDS011;10437;48.156;11.530;2023-01-01T12:03:50;2.33;;;1.10;;
20557;SDS011;10437;48.156;11.530;2023-01-01T12:06:24;1.70;;;1.10;;
20557;SDS011;10437;48.156;11.530;2023-01-01T12:08:56;0.93;;;0.90;;
20557;SDS011;10437;48.156;11.530;2023-01-01T12:11:25;2.20;;;1.02;;
20557;SDS011;10437;48.156;11.530;2023-01-01T12:13:54;1.80;;;1.20;;
20557;SDS011;10437;48.156;11.530;2023-01-01T12:16:38;1.77;;;1.10;;
20557;SDS011;10437;48.156;11.530;2023-01-01T12:19:14;2.13;;;1.20;;
20557;SDS011;10437;48.156;11.530;2023-01-01T12:21:45;2.67;;;1.17;;
20557;SDS011;10437;48.156;11.530;2023-01-01T12:24:14;2.75;;;1.23;;
20557;SDS011;10437;48.156;11.530;2023-01-01T12:26:47;2.78;;;1.23;;
20557;SDS011;10437;48.156;11.530;2023-01-01T12:29:28;4.07;;;1.20;;
20557;SDS011;10437;48.156;11.530;2023-01-01T12:32:06;1.38;;;0.95;;
20557;SDS011;10437;48.156;11.530;2023-01-01T12:34:35;1.52;;;0.98;;
20557;SDS011;10437;48.156;11.530;2023-01-01T12:37:07;1.90;;;0.90;;
20557;SDS011;10437;48.156;11.530;2023-01-01T12:42:44;2.03;;;0.90;;
20557;SDS011;10437;48.156;11.530;2023-01-01T12:45:27;1.67;;;0.90;;
20557;SDS011;10437;48.156;11.530;2023-01-01T12:48:15;1.55;;;1.00;;
20557;SDS011;10437;48.156;11.530;2023-01-01T12:51:14;2.97;;;0.95;;
20557;SDS011;10437;48.156;11.530;2023-01-01T12:53:45;1.63;;;0.90;;
20557;SDS011;10437;48.156;11.530;2023-01-01T12:56:17;0.95;;;0.77;;
20557;SDS011;10437;48.156;11.530;2023-01-01T12:58:49;2.33;;;0.90;;
20557;SDS011;10437;48.156;11.530;2023-01-01T13:01:20;1.88;;;0.90;;
20557;SDS011;10437;48.156;11.530;2023-01-01T13:03:51;1.42;;;0.93;;
20557;SDS011;10437;48.156;11.530;2023-01-01T13:06:21;2.55;;;1.00;;
20557;SDS011;10437;48.156;11.530;2023-01-01T13:08:51;1.83;;;1.08;;
20557;SDS011;10437;48.156;11.530;2023-01-01T13:11:30;2.65;;;0.95;;
20557;SDS011;10437;48.156;11.530;2023-01-01T13:13:58;2.47;;;1.20;;
20557;SDS011;10437;48.156;11.530;2023-01-01T13:16:32;1.38;;;1.02;;
20557;SDS011;10437;48.156;11.530;2023-01-01T13:19:01;1.48;;;0.88;;
20557;SDS011;10437;48.156;11.530;2023-01-01T13:21:29;1.45;;;0.88;;
20557;SDS011;10437;48.156;11.530;2023-01-01T13:24:00;1.88;;;1.10;;
20557;SDS011;10437;48.156;11.530;2023-01-01T13:26:35;2.78;;;1.00;;
20557;SDS011;10437;48.156;11.530;2023-01-01T13:32:06;1.73;;;0.80;;
20557;SDS011;10437;48.156;11.530;2023-01-01T13:34:41;1.75;;;0.85;;
20557;SDS011;10437;48.156;11.530;2023-01-01T13:40:31;2.42;;;0.82;;
20557;SDS011;10437;48.156;11.530;2023-01-01T13:43:17;1.05;;;0.85;;
20557;SDS011;10437;48.156;11.530;2023-01-01T13:45:55;1.45;;;0.98;;
20557;SDS011;10437;48.156;11.530;2023-01-01T13:48:27;1.55;;;0.98;;
20557;SDS011;10437;48.156;11.530;2023-01-01T13:51:16;2.15;;;0.90;;
20557;SDS011;10437;48.156;11.530;2023-01-01T13:53:59;2.90;;;0.95;;
20557;SDS011;10437;48.156;11.530;2023-01-01T13:56:36;2.00;;;1.08;;
20557;SDS011;10437;48.156;11.530;2023-01-01T13:59:04;1.30;;;0.90;;
20557;SDS011;10437;48.156;11.530;2023-01-01T14:01:51;2.25;;;0.98;;
20557;SDS011;10437;48.156;11.530;2023-01-01T14:04:29;2.50;;;1.10;;
20557;SDS011;10437;48.156;11.530;2023-01-01T14:07:05;2.15;;;0.98;;
20557;SDS011;10437;48.156;11.530;2023-01-01T14:09:39;1.73;;;0.93;;
20557;SDS011;10437;48.156;11.530;2023-01-01T14:12:08;1.52;;;0.95;;
20557;SDS011;10437;48.156;11.530;2023-01-01T14:14:35;1.23;;;0.70;;
20557;SDS011;10437;48.156;11.530;2023-01-01T14:17:05;3.10;;;1.17;;
20557;SDS011;10437;48.156;11.530;2023-01-01T14:19:32;2.70;;;1.10;;
20557;SDS011;10437;48.156;11.530;2023-01-01T14:22:00;1.75;;;0.90;;
20557;SDS011;10437;48.156;11.530;2023-01-01T14:24:28;2.95;;;0.90;;
20557;SDS011;10437;48.156;11.530;2023-01-01T14:26:56;4.13;;;0.90;;
20557;SDS011;10437;48.156;11.530;2023-01-01T14:29:24;1.30;;;0.80;;
20557;SDS011;10437;48.156;11.530;2023-01-01T14:31:54;1.42;;;0.80;;
20557;SDS011;10437;48.156;11.530;2023-01-01T14:34:24;4.30;;;0.80;;
20557;SDS011;10437;48.156;11.530;2023-01-01T14:36:53;3.30;;;1.00;;
20557;SDS011;10437;48.156;11.530;2023-01-01T14:39:24;2.63;;;0.93;;
20557;SDS011;10437;48.156;11.530;2023-01-01T14:41:54;2.17;;;0.90;;
20557;SDS011;10437;48.156;11.530;2023-01-01T14:44:26;2.05;;;1.05;;
20557;SDS011;10437;48.156;11.530;2023-01-01T14:46:57;1.23;;;0.95;;
20557;SDS011;10437;48.156;11.530;2023-01-01T14:49:26;2.83;;;1.00;;
20557;SDS011;10437;48.156;11.530;2023-01-01T14:51:56;3.20;;;1.30;;
20557;SDS011;10437;48.156;11.530;2023-01-01T14:54:28;3.50;;;1.38;;